Archival Weather

Norman Y Mineta San Jose Intl

San Jose, California (KSJC)

Report from: Wednesday, February 21, 2024 9:53 AM PST
Current time: Sunday, June 16, 2024 11:32 PM PDT

Current weather – Weather history – Daily summaries
Weather forecast

Temperature11.7°C (53.1°F)
Dew point10.0°C (50.0°F)
Winds 3 kts (1.5 m/s, 3.5 mph) Vrb
Winds variableWinds variable
Visibility10 mi. (16.1 km)
Clouds Few clouds 400 ft. (122 m)
Few clouds 1,500 ft. (457 m)
Few clouds 2,600 ft. (792 m)
Altimeter30.18 in.Hg (1022 mB)
Relative humidity89 %
Density altitude-515 ft. (-157 m)
Sea-level pressure102.2 kPa (1022 mB, 30.18 in.Hg)
Max temp last 6 hours11.7°C (53.1°F)
Min temp last 6 hours6.7°C (44.1°F)
Remarks Automated weather observing station with precipitation discriminator
Towering cumulus clouds observed distant north and northwest
Pressure rising more quickly
Flight conditions Visual Meteorological Conditions
Raw dataKSJC 211753Z VRB03KT 10SM FEW004 FEW015 FEW026 12/10 A3018 RMK AO2 SLP220 TCU DSNT N AND NW T01170100 10117 20067 53020
An error has occurred. This application may no longer respond until reloaded. Reload 🗙